METAR Data
IDs: Format: Raw Decoded Include TAF

Data at: 0139 UTC 24 Oct 2019

METAR for:KFSW (Fort Madison Muni, IA, US)
Text:KFSW 240135Z AUTO 23005KT 10SM CLR 13/07 A2993 RMK AO2
Temperature: 13.0°C ( 55°F)
Dewpoint: 7.0°C ( 45°F) [RH = 67%]
Pressure (altimeter):29.93 inches Hg (1013.6 mb)
Winds:from the SW (230 degrees) at 6 MPH (5 knots; 2.6 m/s)
Visibility:10 or more sm (16+ km)
Ceiling:at least 12,000 feet AGL
Clouds:sky clear below 12,000 feet AGL
QC Flag:automated observation with no human augmentation